Time;durP1;ratioP1;P1;durP2;ratioP2;P2;SDS_P1;SDS_P2;PMS_P1;PMS_P2;Temp;Humidity;BMP_temperature;BMP_pressure;BME280_temperature;BME280_humidity;BME280_pressure;Samples;Min_cycle;Max_cycle;Signal;HPM_P1;HPM_P2
2022/09/29 00:01:13;;;;;;;11.07;5.35;;;;;;;-145.49;100.00;62790.56;4931283;29;20044;-74
2022/09/29 00:03:41;;;;;;;6.82;4.10;;;;;;;-145.49;100.00;62790.56;4947426;28;20035;-74
2022/09/29 00:06:13;;;;;;;4.88;3.60;;;;;;;-145.49;100.00;62790.56;4932781;29;20040;-74
2022/09/29 00:08:40;;;;;;;7.25;5.43;;;;;;;-145.49;100.00;62790.56;4938013;29;20390;-74
2022/09/29 00:11:08;;;;;;;6.90;4.85;;;;;;;-145.49;100.00;62790.56;4945554;28;20032;-74
2022/09/29 00:13:39;;;;;;;5.60;4.10;;;;;;;-145.49;100.00;62790.56;4932957;29;20032;-74
2022/09/29 00:16:06;;;;;;;7.55;5.25;;;;;;;-145.49;100.00;62790.56;4937663;29;20038;-74
2022/09/29 00:18:33;;;;;;;6.85;4.93;;;;;;;-145.49;100.00;62790.56;4922381;29;20044;-74
2022/09/29 00:21:09;;;;;;;6.25;4.57;;;;;;;-145.49;100.00;62790.56;4949157;28;20408;-73
2022/09/29 00:23:38;;;;;;;7.93;4.40;;;;;;;-145.49;100.00;62790.56;4934702;29;20047;-74
2022/09/29 00:26:16;;;;;;;6.45;3.42;;;;;;;-145.49;100.00;62790.56;4934792;29;20035;-73
2022/09/29 00:28:57;;;;;;;6.97;5.10;;;;;;;-145.49;100.00;62790.56;4922103;29;20042;-73
2022/09/29 00:31:25;;;;;;;7.22;5.65;;;;;;;-145.49;100.00;62790.56;4932586;29;20393;-72
2022/09/29 00:33:52;;;;;;;9.50;5.25;;;;;;;-145.49;100.00;62790.56;4948531;28;20052;-73
2022/09/29 00:36:20;;;;;;;9.48;5.43;;;;;;;-145.49;100.00;62790.56;4931740;29;20042;-73
2022/09/29 00:38:47;;;;;;;4.90;4.07;;;;;;;-145.49;100.00;62790.56;4936285;29;20031;-72
2022/09/29 00:41:16;;;;;;;5.18;4.68;;;;;;;-145.49;100.00;62790.56;4949954;28;20410;-73
2022/09/29 00:43:46;;;;;;;15.02;5.68;;;;;;;-145.49;100.00;62790.56;4934836;29;20486;-73
2022/09/29 00:46:16;;;;;;;6.05;5.47;;;;;;;-145.49;100.00;62790.56;4935106;29;20517;-73
2022/09/29 00:48:46;;;;;;;4.60;4.05;;;;;;;-145.49;100.00;62790.56;4949595;29;20031;-73
2022/09/29 00:51:16;;;;;;;7.88;7.00;;;;;;;-145.49;100.00;62790.56;4918813;29;20040;-73
2022/09/29 00:53:50;;;;;;;6.13;5.27;;;;;;;-145.49;100.00;62790.56;4931439;29;20031;-73
2022/09/29 00:56:18;;;;;;;7.38;4.57;;;;;;;-145.49;100.00;62790.56;4933447;29;20658;-73
2022/09/29 00:58:59;;;;;;;9.98;5.63;;;;;;;-145.49;100.00;62790.56;4935352;29;20043;-73
2022/09/29 01:01:30;;;;;;;8.50;5.13;;;;;;;-145.49;100.00;62790.56;4936233;29;20924;-73
2022/09/29 01:04:03;;;;;;;6.85;6.10;;;;;;;-145.49;100.00;62790.56;4936198;29;20035;-73
2022/09/29 01:06:37;;;;;;;8.40;6.35;;;;;;;-145.49;100.00;62790.56;4933559;29;20051;-74
2022/09/29 01:09:17;;;;;;;7.18;5.22;;;;;;;-145.49;100.00;62790.56;4934592;28;20051;-74
2022/09/29 01:11:46;;;;;;;6.63;4.93;;;;;;;-145.49;100.00;62790.56;4946093;28;20039;-74
2022/09/29 01:14:13;;;;;;;7.57;4.60;;;;;;;-145.49;100.00;62790.56;4934131;29;20039;-74
2022/09/29 01:16:40;;;;;;;7.65;5.55;;;;;;;-145.49;100.00;62790.56;4934868;29;20102;-74
2022/09/29 01:19:21;;;;;;;10.40;6.15;;;;;;;-145.49;100.00;62790.56;4932617;28;20402;-74
2022/09/29 01:22:00;;;;;;;30.30;8.70;;;;;;;-145.49;100.00;62790.56;4934730;29;20044;-74
2022/09/29 01:24:32;;;;;;;14.00;7.32;;;;;;;-145.49;100.00;62790.56;4947364;28;20060;-74
2022/09/29 01:27:25;;;;;;;26.20;8.07;;;;;;;-145.49;100.00;62790.56;4956647;28;20042;-74
2022/09/29 01:30:12;;;;;;;9.05;5.63;;;;;;;-145.49;100.00;62790.56;4947801;28;20441;-74
2022/09/29 01:32:57;;;;;;;14.23;7.65;;;;;;;-145.49;100.00;62790.56;4929001;29;20265;-73
2022/09/29 01:35:52;;;;;;;26.92;8.23;;;;;;;-145.49;100.00;62790.56;4932130;29;20032;-73
2022/09/29 01:38:48;;;;;;;50.03;12.13;;;;;;;-145.49;100.00;62790.56;4929752;29;20520;-73
2022/09/29 01:41:35;;;;;;;14.85;7.53;;;;;;;-145.49;100.00;62790.56;4929200;29;20028;-73
2022/09/29 01:44:27;;;;;;;61.65;15.60;;;;;;;-145.49;100.00;62790.56;4940585;29;20046;-73
2022/09/29 01:47:00;;;;;;;43.60;10.07;;;;;;;-145.49;100.00;62790.56;4936416;29;20043;-73
2022/09/29 01:49:33;;;;;;;81.40;12.20;;;;;;;-145.49;100.00;62790.56;4947530;28;20066;-74
2022/09/29 01:52:16;;;;;;;37.17;8.55;;;;;;;-145.49;100.00;62790.56;4933012;29;20509;-73
2022/09/29 01:54:55;;;;;;;14.87;8.10;;;;;;;-145.49;100.00;62790.56;4938406;29;20039;-73
2022/09/29 01:57:36;;;;;;;16.30;5.60;;;;;;;-145.49;100.00;62790.56;4936698;29;20032;-74
2022/09/29 02:00:11;;;;;;;33.28;8.48;;;;;;;-145.49;100.00;62790.56;4946406;28;20040;-73
2022/09/29 02:02:54;;;;;;;119.00;11.75;;;;;;;-145.49;100.00;62790.56;4946016;29;20052;-73
2022/09/29 02:05:52;;;;;;;9.95;6.30;;;;;;;-145.49;100.00;62790.56;4950083;29;20038;-73
2022/09/29 02:08:31;;;;;;;46.57;8.60;;;;;;;-145.49;100.00;62790.56;4932140;29;20032;-73
2022/09/29 02:11:04;;;;;;;14.05;5.85;;;;;;;-145.49;100.00;62790.56;4946860;28;20488;-73
2022/09/29 02:13:42;;;;;;;34.45;9.90;;;;;;;-145.49;100.00;62790.56;4933630;29;20050;-73
2022/09/29 02:16:14;;;;;;;34.25;8.65;;;;;;;-145.49;100.00;62790.56;4955776;28;20393;-75
2022/09/29 02:18:52;;;;;;;54.40;9.02;;;;;;;-145.49;100.00;62790.56;4934549;29;20612;-72
2022/09/29 02:21:18;;;;;;;15.45;5.68;;;;;;;-145.49;100.00;62790.56;4927986;29;20474;-73
2022/09/29 02:23:44;;;;;;;35.33;5.63;;;;;;;-145.49;100.00;62790.56;4932252;29;20048;-74
2022/09/29 02:26:16;;;;;;;48.95;9.05;;;;;;;-145.49;100.00;62790.56;4956852;28;20500;-73
2022/09/29 02:28:45;;;;;;;36.25;9.25;;;;;;;-145.49;100.00;62790.56;4932606;29;20050;-74
2022/09/29 02:31:14;;;;;;;36.80;7.80;;;;;;;-145.49;100.00;62790.56;4932925;29;20072;-74
2022/09/29 02:33:40;;;;;;;43.17;8.20;;;;;;;-145.49;100.00;62790.56;4948059;29;20051;-74
2022/09/29 02:36:32;;;;;;;59.92;8.48;;;;;;;-145.49;100.00;62790.56;4936767;28;20032;-74
2022/09/29 02:39:07;;;;;;;37.50;8.18;;;;;;;-145.49;100.00;62790.56;4917194;29;20040;-73
2022/09/29 02:42:27;;;;;;;48.58;8.00;;;;;;;-145.49;100.00;62790.56;4933705;29;20047;-74
2022/09/29 02:45:26;;;;;;;23.70;7.65;;;;;;;-145.49;100.00;62790.56;4860394;29;20416;-74
2022/09/29 02:48:01;;;;;;;7.70;5.68;;;;;;;-145.49;100.00;62790.56;4865872;29;20056;-74
2022/09/29 02:50:36;;;;;;;6.85;5.25;;;;;;;-145.49;100.00;62790.56;4886210;29;20059;-73
2022/09/29 02:53:15;;;;;;;5.80;5.07;;;;;;;-145.49;100.00;62790.56;4937004;29;20051;-73
2022/09/29 02:56:01;;;;;;;5.13;4.63;;;;;;;-145.49;100.00;62790.56;4941949;29;20047;-73
2022/09/29 02:58:41;;;;;;;5.03;4.13;;;;;;;-145.49;100.00;62790.56;4943825;29;20387;-73
2022/09/29 03:01:08;;;;;;;5.05;4.65;;;;;;;-145.49;100.00;62790.56;4934408;29;20050;-73
2022/09/29 03:03:36;;;;;;;6.60;4.43;;;;;;;-145.49;100.00;62790.56;4952118;28;20976;-73
2022/09/29 03:06:05;;;;;;;6.15;4.78;;;;;;;-145.49;100.00;62790.56;4932025;29;20043;-74
2022/09/29 03:08:32;;;;;;;6.03;5.43;;;;;;;-145.49;100.00;62790.56;4935150;29;20051;-73
2022/09/29 03:10:58;;;;;;;5.50;4.85;;;;;;;-145.49;100.00;62790.56;4934426;28;20039;-74
2022/09/29 03:13:27;;;;;;;6.18;5.38;;;;;;;-145.49;100.00;62790.56;4946496;28;20422;-74
2022/09/29 03:15:53;;;;;;;10.85;6.03;;;;;;;-145.49;100.00;62790.56;4915658;29;20040;-74
2022/09/29 03:18:21;;;;;;;6.43;5.63;;;;;;;-145.49;100.00;62790.56;4953533;28;20058;-73
2022/09/29 03:20:53;;;;;;;7.72;6.07;;;;;;;-145.49;100.00;62790.56;4947564;28;20036;-74
2022/09/29 03:23:19;;;;;;;7.22;6.45;;;;;;;-145.49;100.00;62790.56;4946075;29;20047;-74
2022/09/29 03:25:48;;;;;;;7.38;5.82;;;;;;;-145.49;100.00;62790.56;4931317;29;20054;-74
2022/09/29 03:28:15;;;;;;;8.25;5.93;;;;;;;-145.49;100.00;62790.56;4951716;28;20043;-74
2022/09/29 03:30:41;;;;;;;5.90;4.97;;;;;;;-145.49;100.00;62790.56;4948322;28;20067;-72
2022/09/29 03:33:07;;;;;;;10.52;6.65;;;;;;;-145.49;100.00;62790.56;4946693;29;20506;-72
2022/09/29 03:35:33;;;;;;;8.45;6.57;;;;;;;-145.49;100.00;62790.56;4915964;29;20048;-73
2022/09/29 03:38:00;;;;;;;7.20;5.80;;;;;;;-145.49;100.00;62790.56;4931066;29;20055;-73
2022/09/29 03:40:29;;;;;;;10.43;6.68;;;;;;;-145.49;100.00;62790.56;4912673;29;20075;-73
2022/09/29 03:42:55;;;;;;;7.05;5.90;;;;;;;-145.49;100.00;62790.56;4932576;29;20483;-73
2022/09/29 03:45:21;;;;;;;8.07;7.25;;;;;;;-145.49;100.00;62790.56;4915505;29;20044;-73
2022/09/29 03:47:50;;;;;;;6.82;5.78;;;;;;;-145.49;100.00;62790.56;4932894;29;20047;-73
2022/09/29 03:50:16;;;;;;;8.10;6.30;;;;;;;-145.49;100.00;62790.56;4964644;28;20055;-73
2022/09/29 03:52:44;;;;;;;6.80;6.18;;;;;;;-145.49;100.00;62790.56;4940083;29;20047;-73
2022/09/29 03:55:10;;;;;;;7.82;6.88;;;;;;;-145.49;100.00;62790.56;4949201;29;20043;-73
2022/09/29 03:57:36;;;;;;;11.55;6.93;;;;;;;-145.49;100.00;62790.56;4950393;29;20409;-72
2022/09/29 04:00:03;;;;;;;17.85;5.88;;;;;;;-145.49;100.00;62790.56;4939352;29;20385;-73
2022/09/29 04:02:36;;;;;;;6.50;5.63;;;;;;;-145.49;100.00;62790.56;4941639;29;20036;-74
2022/09/29 04:05:02;;;;;;;8.93;7.32;;;;;;;-145.49;100.00;62790.56;4928729;29;20042;-73
2022/09/29 04:07:31;;;;;;;6.43;5.65;;;;;;;-145.49;100.00;62790.56;4950776;29;20054;-73
2022/09/29 04:09:57;;;;;;;6.45;5.45;;;;;;;-145.49;100.00;62790.56;4951813;28;20035;-73
2022/09/29 04:12:26;;;;;;;6.47;5.65;;;;;;;-145.49;100.00;62790.56;4957575;28;20039;-73
2022/09/29 04:14:54;;;;;;;9.95;8.32;;;;;;;-145.49;100.00;62790.56;4948890;29;20058;-73
2022/09/29 04:17:23;;;;;;;7.72;5.63;;;;;;;-145.49;100.00;62790.56;4933836;29;20040;-73
2022/09/29 04:19:52;;;;;;;6.45;5.72;;;;;;;-145.49;100.00;62790.56;4951394;28;20047;-75
2022/09/29 04:22:18;;;;;;;6.75;5.47;;;;;;;-145.49;100.00;62790.56;4941186;29;20043;-73
2022/09/29 04:24:49;;;;;;;8.05;6.35;;;;;;;-145.49;100.00;62790.56;4934505;29;20047;-73
2022/09/29 04:27:15;;;;;;;7.15;5.95;;;;;;;-145.49;100.00;62790.56;4950367;28;20044;-73
2022/09/29 04:29:44;;;;;;;7.18;6.47;;;;;;;-145.49;100.00;62790.56;4917928;29;20406;-73
2022/09/29 04:32:14;;;;;;;6.55;5.75;;;;;;;-145.49;100.00;62790.56;4951666;29;20043;-73
2022/09/29 04:34:41;;;;;;;5.43;4.85;;;;;;;-145.49;100.00;62790.56;4948381;29;20039;-73
2022/09/29 04:37:12;;;;;;;7.32;5.53;;;;;;;-145.49;100.00;62790.56;4949116;28;20035;-73
2022/09/29 04:39:39;;;;;;;5.72;5.18;;;;;;;-145.49;100.00;62790.56;4924799;29;20039;-74
2022/09/29 04:42:08;;;;;;;7.88;5.13;;;;;;;-145.49;100.00;62790.56;4943983;29;20040;-73
2022/09/29 04:44:39;;;;;;;5.47;4.93;;;;;;;-145.49;100.00;62790.56;4932251;29;20482;-73
2022/09/29 04:47:09;;;;;;;6.57;5.25;;;;;;;-145.49;100.00;62790.56;4936058;29;20046;-73
2022/09/29 04:49:36;;;;;;;6.80;5.38;;;;;;;-145.49;100.00;62790.56;4934435;29;20446;-73
2022/09/29 04:52:05;;;;;;;6.05;5.15;;;;;;;-145.49;100.00;62790.56;4940014;29;20054;-73
2022/09/29 04:54:32;;;;;;;6.93;5.35;;;;;;;-145.49;100.00;62790.56;4927840;29;20078;-74
2022/09/29 04:56:59;;;;;;;6.40;5.80;;;;;;;-145.49;100.00;62790.56;4951260;28;20518;-74
2022/09/29 04:59:26;;;;;;;7.03;5.32;;;;;;;-145.49;100.00;62790.56;4927604;29;20044;-73
2022/09/29 05:01:53;;;;;;;6.78;6.13;;;;;;;-145.49;100.00;62790.56;4937063;29;20403;-73
2022/09/29 05:04:19;;;;;;;7.60;6.90;;;;;;;-145.49;100.00;62790.56;4946785;29;20402;-73
2022/09/29 05:06:46;;;;;;;10.35;7.05;;;;;;;-145.49;100.00;62790.56;4935732;29;20058;-74
2022/09/29 05:09:12;;;;;;;7.90;6.32;;;;;;;-145.49;100.00;62790.56;4917569;29;20047;-75
2022/09/29 05:11:38;;;;;;;8.30;6.50;;;;;;;-145.49;100.00;62790.56;4936152;29;20039;-73
2022/09/29 05:14:05;;;;;;;8.10;6.93;;;;;;;-145.49;100.00;62790.56;4942996;29;20042;-74
2022/09/29 05:16:33;;;;;;;7.55;5.95;;;;;;;-145.49;100.00;62790.56;4944417;29;20044;-74
2022/09/29 05:19:02;;;;;;;9.10;6.15;;;;;;;-145.49;100.00;62790.56;4949885;29;20379;-75
2022/09/29 05:21:28;;;;;;;9.80;8.02;;;;;;;-145.49;100.00;62790.56;4946143;23;20047;-82
2022/09/29 05:24:04;;;;;;;8.25;6.00;;;;;;;-145.49;100.00;62790.56;4933539;29;20035;-82
2022/09/29 05:26:33;;;;;;;8.57;5.22;;;;;;;-145.49;100.00;62790.56;4932580;29;20039;-83
2022/09/29 05:29:01;;;;;;;7.10;5.45;;;;;;;-145.49;100.00;62790.56;4934966;29;20042;-82
2022/09/29 05:31:27;;;;;;;17.02;6.43;;;;;;;-145.49;100.00;62790.56;4950051;29;20031;-82
2022/09/29 05:34:01;;;;;;;6.63;5.60;;;;;;;-145.49;100.00;62790.56;4952642;28;20049;-83
2022/09/29 05:36:32;;;;;;;4.82;4.40;;;;;;;-145.49;100.00;62790.56;4959329;28;20046;-83
2022/09/29 05:38:58;;;;;;;6.95;4.82;;;;;;;-145.49;100.00;62790.56;4952335;29;20046;-83
2022/09/29 05:41:26;;;;;;;9.85;6.75;;;;;;;-145.49;100.00;62790.56;4952825;28;20536;-83
2022/09/29 05:43:55;;;;;;;11.20;5.82;;;;;;;-145.49;100.00;62790.56;4950488;29;20048;-82
2022/09/29 05:46:22;;;;;;;9.57;5.85;;;;;;;-145.49;100.00;62790.56;4936149;29;20046;-82
2022/09/29 05:48:50;;;;;;;4.88;4.18;;;;;;;-145.49;100.00;62790.56;4948958;28;20038;-82
2022/09/29 05:51:19;;;;;;;5.03;4.43;;;;;;;-145.49;100.00;62790.56;4940778;29;20032;-82
2022/09/29 05:53:48;;;;;;;5.57;4.47;;;;;;;-145.49;100.00;62790.56;4951701;29;20042;-82
2022/09/29 05:56:22;;;;;;;6.88;4.53;;;;;;;-145.49;100.00;62790.56;4950738;29;20031;-82
2022/09/29 05:58:52;;;;;;;10.98;6.40;;;;;;;-145.49;100.00;62790.56;4968450;28;20362;-82
2022/09/29 06:01:27;;;;;;;5.55;5.03;;;;;;;-145.49;100.00;62790.56;4953025;29;20043;-82
2022/09/29 06:03:54;;;;;;;8.57;5.60;;;;;;;-145.49;100.00;62790.56;4951510;28;20035;-82
2022/09/29 06:06:30;;;;;;;5.85;4.55;;;;;;;-145.49;100.00;62790.56;4951403;28;20046;-81
2022/09/29 06:09:00;;;;;;;6.35;5.03;;;;;;;-145.49;100.00;62790.56;4942316;28;20031;-82
2022/09/29 06:11:30;;;;;;;14.55;5.03;;;;;;;-145.49;100.00;62790.56;4959532;28;20108;-82
2022/09/29 06:14:00;;;;;;;6.57;5.95;;;;;;;-145.49;100.00;62790.56;4967657;28;20039;-82
2022/09/29 06:16:31;;;;;;;6.70;5.50;;;;;;;-145.49;100.00;62790.56;4955409;28;20042;-82
2022/09/29 06:18:58;;;;;;;16.30;6.55;;;;;;;-145.49;100.00;62790.56;4947463;28;20036;-80
2022/09/29 06:21:28;;;;;;;7.00;5.70;;;;;;;-145.49;100.00;62790.56;4941871;29;20532;-82
2022/09/29 06:23:57;;;;;;;8.43;5.90;;;;;;;-145.49;100.00;62790.56;4951468;29;20062;-82
2022/09/29 06:26:25;;;;;;;7.47;6.30;;;;;;;-145.49;100.00;62790.56;4957712;28;20397;-82
2022/09/29 06:28:57;;;;;;;13.52;6.90;;;;;;;-145.49;100.00;62790.56;4958168;28;20035;-82
2022/09/29 06:31:28;;;;;;;8.95;7.43;;;;;;;-145.49;100.00;62790.56;4951936;28;20221;-82
2022/09/29 06:34:03;;;;;;;13.90;8.70;;;;;;;-145.49;100.00;62790.56;4953869;29;20035;-82
2022/09/29 06:39:21;;;;;;;14.25;8.75;;;;;;;-145.49;100.00;62790.56;4954507;28;20035;-82
2022/09/29 06:41:55;;;;;;;15.05;9.40;;;;;;;-145.49;100.00;62790.56;4952364;29;20070;-82
2022/09/29 06:44:29;;;;;;;7.65;6.88;;;;;;;-145.49;100.00;62790.56;4953882;28;20524;-82
2022/09/29 06:46:58;;;;;;;8.02;6.78;;;;;;;-145.49;100.00;62790.56;4949066;28;20170;-83
2022/09/29 06:49:27;;;;;;;9.52;7.28;;;;;;;-145.49;100.00;62790.56;4950597;28;20120;-82
2022/09/29 06:51:53;;;;;;;13.13;7.60;;;;;;;-145.49;100.00;62790.56;4953056;28;20402;-82
2022/09/29 06:54:28;;;;;;;8.10;6.93;;;;;;;-145.49;100.00;62790.56;4946711;28;20035;-82
2022/09/29 06:56:56;;;;;;;12.27;7.82;;;;;;;-145.49;100.00;62790.56;4952602;28;20035;-82
2022/09/29 06:59:27;;;;;;;12.77;7.15;;;;;;;-145.49;100.00;62790.56;4939077;28;20027;-82
2022/09/29 07:01:55;;;;;;;10.30;7.13;;;;;;;-145.49;100.00;62790.56;4949065;29;20058;-82
2022/09/29 07:04:24;;;;;;;9.13;6.13;;;;;;;-145.49;100.00;62790.56;4954479;28;20512;-82
2022/09/29 07:06:55;;;;;;;7.88;6.43;;;;;;;-145.49;100.00;62790.56;4965390;28;20054;-82
2022/09/29 07:09:24;;;;;;;8.70;5.68;;;;;;;-145.49;100.00;62790.56;4961018;28;20035;-82
2022/09/29 07:11:51;;;;;;;11.20;6.68;;;;;;;-145.49;100.00;62790.56;4952672;28;20046;-82
2022/09/29 07:14:25;;;;;;;12.40;6.63;;;;;;;-145.49;100.00;62790.56;4953850;29;20082;-82
2022/09/29 07:16:52;;;;;;;11.52;8.30;;;;;;;-145.49;100.00;62790.56;4950870;28;20397;-82
2022/09/29 07:19:21;;;;;;;11.95;7.38;;;;;;;-145.49;100.00;62790.56;4945722;28;20386;-82
2022/09/29 07:21:47;;;;;;;8.57;7.63;;;;;;;-145.49;100.00;62790.56;4950027;28;20082;-82
2022/09/29 07:24:14;;;;;;;12.27;8.05;;;;;;;-145.49;100.00;62790.56;4941411;28;20033;-82
2022/09/29 07:26:43;;;;;;;9.38;7.72;;;;;;;-145.49;100.00;62790.56;4955494;28;20047;-82
2022/09/29 07:29:09;;;;;;;9.95;7.65;;;;;;;-145.49;100.00;62790.56;4956224;28;20034;-82
2022/09/29 07:31:38;;;;;;;6.45;5.78;;;;;;;-145.49;100.00;62790.56;4957425;28;20119;-82
2022/09/29 07:34:09;;;;;;;6.90;5.93;;;;;;;-145.49;100.00;62790.56;4940981;29;20031;-82
2022/09/29 07:36:39;;;;;;;7.32;5.93;;;;;;;-145.49;100.00;62790.56;4955054;28;20433;-82
2022/09/29 07:39:10;;;;;;;6.38;5.75;;;;;;;-145.49;100.00;62790.56;4955188;28;20397;-82
2022/09/29 07:41:39;;;;;;;12.98;6.85;;;;;;;-145.49;100.00;62790.56;4955114;28;20410;-82
2022/09/29 07:44:12;;;;;;;8.02;7.15;;;;;;;-145.49;100.00;62790.56;4956873;29;20069;-82
2022/09/29 07:46:40;;;;;;;9.05;6.13;;;;;;;-145.49;100.00;62790.56;4956158;28;20043;-82
2022/09/29 07:49:11;;;;;;;10.27;6.43;;;;;;;-145.49;100.00;62790.56;4955908;28;20501;-82
2022/09/29 07:51:39;;;;;;;15.07;7.10;;;;;;;-145.49;100.00;62790.56;4955719;28;20035;-82
2022/09/29 07:54:08;;;;;;;10.20;7.55;;;;;;;-145.49;100.00;62790.56;4955021;28;20038;-82
2022/09/29 07:56:34;;;;;;;10.25;6.90;;;;;;;-145.49;100.00;62790.56;4954408;28;20047;-82
2022/09/29 07:59:02;;;;;;;7.53;5.75;;;;;;;-145.49;100.00;62790.56;4955735;28;20038;-82
2022/09/29 08:01:31;;;;;;;8.43;6.20;;;;;;;-145.49;100.00;62790.56;4954033;28;20039;-82
2022/09/29 08:03:57;;;;;;;8.70;7.07;;;;;;;-145.49;100.00;62790.56;4956117;28;20304;-83
2022/09/29 08:06:25;;;;;;;12.77;8.50;;;;;;;-145.49;100.00;62790.56;4955121;28;20039;-82
2022/09/29 08:08:59;;;;;;;10.18;7.72;;;;;;;-145.49;100.00;62790.56;4969447;28;20123;-82
2022/09/29 08:11:27;;;;;;;11.90;7.97;;;;;;;-145.49;100.00;62790.56;4958069;28;20039;-82
2022/09/29 08:13:58;;;;;;;10.02;6.78;;;;;;;-145.49;100.00;62790.56;4935283;29;20031;-82
2022/09/29 08:16:35;;;;;;;10.85;6.15;;;;;;;-145.49;100.00;62790.56;4955544;28;20083;-82
2022/09/29 08:19:03;;;;;;;10.18;6.82;;;;;;;-145.49;100.00;62790.56;4951960;28;20382;-83
2022/09/29 08:21:31;;;;;;;5.70;4.60;;;;;;;-145.49;100.00;62790.56;4950204;28;20035;-83
2022/09/29 08:24:01;;;;;;;7.32;5.70;;;;;;;-145.49;100.00;62790.56;4958391;28;20036;-83
2022/09/29 08:26:27;;;;;;;6.90;6.20;;;;;;;-145.49;100.00;62790.56;4949766;28;20035;-83
2022/09/29 08:28:55;;;;;;;8.20;5.93;;;;;;;-145.49;100.00;62790.56;4934922;29;20042;-83
2022/09/29 08:31:24;;;;;;;9.40;6.15;;;;;;;-145.49;100.00;62790.56;4951235;28;20030;-83
2022/09/29 08:33:57;;;;;;;8.25;4.97;;;;;;;-145.49;100.00;62790.56;4957453;28;20049;-84
2022/09/29 08:36:26;;;;;;;6.00;5.25;;;;;;;-145.49;100.00;62790.56;4955285;29;20042;-83
2022/09/29 08:38:55;;;;;;;7.15;5.35;;;;;;;-145.49;100.00;62790.56;4949473;28;20520;-83
2022/09/29 08:41:40;;;;;;;6.22;5.47;;;;;;;-145.49;100.00;62790.56;4919798;29;20039;-83
2022/09/29 08:44:40;;;;;;;8.43;5.75;;;;;;;-145.49;100.00;62790.56;4957495;28;20043;-82
2022/09/29 08:47:15;;;;;;;8.05;5.68;;;;;;;-145.49;100.00;62790.56;4944628;29;20043;-83
2022/09/29 08:49:46;;;;;;;8.85;5.57;;;;;;;-145.49;100.00;62790.56;4956826;28;20039;-83
2022/09/29 08:52:19;;;;;;;7.93;5.93;;;;;;;-145.49;100.00;62790.56;4954808;29;20028;-82
2022/09/29 08:54:51;;;;;;;7.93;5.55;;;;;;;-145.49;100.00;62790.56;4951938;28;20047;-83
2022/09/29 08:57:20;;;;;;;8.82;6.38;;;;;;;-145.49;100.00;62790.56;4960048;28;20035;-83
2022/09/29 08:59:54;;;;;;;7.40;5.40;;;;;;;-145.49;100.00;62790.56;4936431;29;20039;-83
2022/09/29 09:02:32;;;;;;;9.00;4.78;;;;;;;-145.49;100.00;62790.56;4957714;28;20527;-83
2022/09/29 09:05:16;;;;;;;8.52;5.50;;;;;;;-145.49;100.00;62790.56;4952364;28;20473;-83
2022/09/29 09:07:44;;;;;;;7.60;5.90;;;;;;;-145.49;100.00;62790.56;4952523;28;20602;-83
2022/09/29 09:10:37;;;;;;;6.70;5.88;;;;;;;-145.49;100.00;62790.56;4951912;28;20043;-83
2022/09/29 09:13:31;;;;;;;9.73;6.00;;;;;;;-145.49;100.00;62790.56;4948680;29;20042;-83
2022/09/29 09:16:14;;;;;;;10.07;6.40;;;;;;;-145.49;100.00;62790.56;4954026;28;20058;-82
2022/09/29 09:18:50;;;;;;;9.00;5.90;;;;;;;-145.49;100.00;62790.56;4949247;28;20043;-78
2022/09/29 09:21:58;;;;;;;9.43;6.55;;;;;;;-145.49;100.00;62790.56;4951697;28;20123;-83
2022/09/29 09:24:45;;;;;;;7.90;5.47;;;;;;;-145.49;100.00;62790.56;4948222;29;20051;-82
2022/09/29 09:27:24;;;;;;;7.78;5.43;;;;;;;-145.49;100.00;62790.56;4960103;28;20047;-83
2022/09/29 09:30:02;;;;;;;8.88;5.40;;;;;;;-145.49;100.00;62790.56;4952663;28;20035;-83
2022/09/29 09:32:34;;;;;;;7.60;5.53;;;;;;;-145.49;100.00;62790.56;4952583;28;20035;-82
2022/09/29 09:35:05;;;;;;;4.78;4.35;;;;;;;-145.49;100.00;62790.56;4954223;28;20035;-79
2022/09/29 09:37:40;;;;;;;7.18;6.10;;;;;;;-145.49;100.00;62790.56;4949367;28;20042;-82
2022/09/29 09:40:25;;;;;;;12.38;5.18;;;;;;;-145.49;100.00;62790.56;4952492;28;20090;-84
2022/09/29 09:43:04;;;;;;;9.52;6.70;;;;;;;-145.49;100.00;62790.56;4953364;28;20056;-84
2022/09/29 09:45:41;;;;;;;8.77;5.88;;;;;;;-145.49;100.00;62790.56;4934416;28;20048;-85
2022/09/29 09:48:36;;;;;;;7.07;6.38;;;;;;;-145.49;100.00;62790.56;4973266;28;20382;-83
2022/09/29 09:51:40;;;;;;;6.10;4.78;;;;;;;-145.49;100.00;62790.56;4934545;28;20502;-84
2022/09/29 09:54:15;;;;;;;6.57;5.38;;;;;;;-145.49;100.00;62790.56;4936093;28;20046;-84
2022/09/29 09:57:22;;;;;;;9.57;4.90;;;;;;;-145.49;100.00;62790.56;4953363;28;20046;-84
2022/09/29 10:00:10;;;;;;;6.63;4.93;;;;;;;-145.49;100.00;62790.56;4951880;28;20050;-84
2022/09/29 10:02:44;;;;;;;6.95;4.85;;;;;;;-145.49;100.00;62790.56;4967538;28;20037;-84
2022/09/29 10:05:18;;;;;;;6.20;4.70;;;;;;;-145.49;100.00;62790.56;4952693;28;20382;-84
2022/09/29 10:07:49;;;;;;;6.53;4.95;;;;;;;-145.49;100.00;62790.56;4953885;28;20046;-84
2022/09/29 10:10:24;;;;;;;7.15;5.03;;;;;;;-145.49;100.00;62790.56;4954411;29;20058;-84
2022/09/29 10:13:07;;;;;;;7.47;5.57;;;;;;;-145.49;100.00;62790.56;4955117;28;20032;-84
2022/09/29 10:16:00;;;;;;;5.82;3.72;;;;;;;-145.49;100.00;62790.56;4953463;29;20067;-85
2022/09/29 10:18:34;;;;;;;11.40;5.40;;;;;;;-145.49;100.00;62790.56;4956952;28;20050;-85
2022/09/29 10:21:00;;;;;;;7.57;4.97;;;;;;;-145.49;100.00;62790.56;4946847;29;20516;-84
2022/09/29 10:23:33;;;;;;;4.88;4.35;;;;;;;-145.49;100.00;62790.56;4957903;28;20031;-86
2022/09/29 10:26:15;;;;;;;8.40;4.78;;;;;;;-145.49;100.00;62790.56;4951318;28;20413;-83
2022/09/29 10:28:48;;;;;;;5.32;4.35;;;;;;;-145.49;100.00;62790.56;4945140;28;20031;-84
2022/09/29 10:31:37;;;;;;;6.43;5.22;;;;;;;-145.49;100.00;62790.56;4951972;28;20046;-83
2022/09/29 10:34:15;;;;;;;8.25;5.30;;;;;;;-145.49;100.00;62790.56;4959199;28;20042;-84
2022/09/29 10:37:02;;;;;;;8.55;4.63;;;;;;;-145.49;100.00;62790.56;4952295;29;20043;-84
2022/09/29 10:39:37;;;;;;;4.55;3.70;;;;;;;-145.49;100.00;62790.56;4949331;28;20035;-85
2022/09/29 10:42:35;;;;;;;5.03;3.90;;;;;;;-145.49;100.00;62790.56;4946161;28;20553;-84
2022/09/29 10:45:30;;;;;;;8.68;4.85;;;;;;;-145.49;100.00;62790.56;4931132;29;20063;-83
2022/09/29 10:47:56;;;;;;;5.88;4.53;;;;;;;-145.49;100.00;62790.56;4955385;28;20408;-83
2022/09/29 10:50:30;;;;;;;7.82;4.18;;;;;;;-145.49;100.00;62790.56;4942885;29;20473;-83
2022/09/29 10:53:14;;;;;;;5.32;4.38;;;;;;;-145.49;100.00;62790.56;4944877;29;20062;-83
2022/09/29 10:55:56;;;;;;;7.35;4.13;;;;;;;-145.49;100.00;62790.56;4964715;28;20050;-84
2022/09/29 10:58:34;;;;;;;4.28;3.75;;;;;;;-145.49;100.00;62790.56;4946779;29;20050;-83
2022/09/29 11:01:09;;;;;;;4.90;4.00;;;;;;;-145.49;100.00;62790.56;4986151;23;20046;-88
2022/09/29 11:03:46;;;;;;;7.13;4.30;;;;;;;-145.49;100.00;62790.56;4954444;28;20054;-92
2022/09/29 11:06:26;;;;;;;6.68;4.95;;;;;;;-145.49;100.00;62790.56;4922584;29;20039;-89
2022/09/29 11:09:03;;;;;;;6.03;4.75;;;;;;;-145.49;100.00;62790.56;4971760;28;20057;-89
2022/09/29 11:11:35;;;;;;;6.55;3.40;;;;;;;-145.49;100.00;62790.56;4954645;28;20046;-92
2022/09/29 11:14:02;;;;;;;3.80;3.20;;;;;;;-145.49;100.00;62790.56;4957059;28;20126;-89
2022/09/29 11:16:32;;;;;;;5.57;3.50;;;;;;;-145.49;100.00;62790.56;4941551;28;20039;-90
2022/09/29 11:19:14;;;;;;;4.13;3.17;;;;;;;-145.49;100.00;62790.56;4959059;28;20034;-89
2022/09/29 11:21:43;;;;;;;7.85;3.13;;;;;;;-145.49;100.00;62790.56;4983280;23;20046;-75
2022/09/29 11:24:54;;;;;;;3.35;2.70;;;;;;;-145.49;100.00;62790.56;4987137;28;20497;-75
2022/09/29 11:27:46;;;;;;;2.95;2.63;;;;;;;-145.49;100.00;62790.56;4953056;29;20050;-74
2022/09/29 11:30:16;;;;;;;5.28;2.42;;;;;;;-145.49;100.00;62790.56;4967876;28;20042;-75
2022/09/29 11:32:57;;;;;;;3.95;2.40;;;;;;;-145.49;100.00;62790.56;4969315;28;20042;-74
2022/09/29 11:35:29;;;;;;;3.78;2.38;;;;;;;-145.49;100.00;62790.56;4955036;28;20042;-73
2022/09/29 11:37:56;;;;;;;5.50;3.83;;;;;;;-145.49;100.00;62790.56;4972458;28;20042;-74